Time;durP1;ratioP1;P1;durP2;ratioP2;P2;SDS_P1;SDS_P2;PMS_P1;PMS_P2;Temp;Humidity;BMP_temperature;BMP_pressure;BME280_temperature;BME280_humidity;BME280_pressure;Samples;Min_cycle;Max_cycle;Signal;HPM_P1;HPM_P2
2021/07/22 00:02:01;;;;;;;11.90;6.20;;;16.20;99.90;;;;;;5101188;28;20189;-43
2021/07/22 00:04:27;;;;;;;10.00;6.10;;;16.20;99.90;;;;;;5099597;28;20701;-43
2021/07/22 00:06:54;;;;;;;8.67;5.60;;;16.20;99.90;;;;;;5101519;28;20197;-43
2021/07/22 00:09:22;;;;;;;6.03;4.90;;;16.20;99.90;;;;;;5090826;28;20221;-42
2021/07/22 00:11:48;;;;;;;6.03;5.00;;;16.20;99.90;;;;;;5085971;28;20201;-44
2021/07/22 00:14:16;;;;;;;7.30;5.77;;;16.20;99.90;;;;;;5089564;28;20321;-43
2021/07/22 00:16:42;;;;;;;5.10;4.60;;;16.20;99.90;;;;;;5101921;28;20208;-45
2021/07/22 00:19:09;;;;;;;8.13;5.03;;;16.20;99.90;;;;;;5094848;28;20409;-43
2021/07/22 00:21:36;;;;;;;7.63;5.40;;;16.20;99.90;;;;;;5100727;28;20197;-44
2021/07/22 00:24:02;;;;;;;7.37;4.83;;;16.20;99.90;;;;;;5100249;28;20185;-43
2021/07/22 00:26:30;;;;;;;7.20;4.80;;;16.10;99.90;;;;;;5104562;28;20654;-43
2021/07/22 00:28:57;;;;;;;7.40;4.30;;;16.20;99.90;;;;;;5094674;28;20206;-45
2021/07/22 00:31:24;;;;;;;4.60;4.20;;;16.20;99.90;;;;;;5084706;28;20254;-43
2021/07/22 00:33:51;;;;;;;5.80;4.37;;;16.20;99.90;;;;;;5101785;28;20682;-42
2021/07/22 00:36:17;;;;;;;5.90;4.63;;;16.20;99.90;;;;;;5103338;28;20227;-42
2021/07/22 00:38:44;;;;;;;10.00;4.57;;;16.20;99.90;;;;;;5098141;28;20945;-42
2021/07/22 00:41:11;;;;;;;6.27;4.60;;;16.20;99.90;;;;;;5078879;28;20201;-45
2021/07/22 00:43:41;;;;;;;5.03;4.43;;;16.20;99.90;;;;;;5096785;28;20230;-44
2021/07/22 00:46:08;;;;;;;5.93;4.33;;;16.20;99.90;;;;;;5087814;28;20278;-42
2021/07/22 00:48:35;;;;;;;6.97;4.63;;;16.20;99.90;;;;;;5086236;28;20221;-44
2021/07/22 00:51:03;;;;;;;5.97;4.47;;;16.10;99.90;;;;;;5100151;28;20177;-43
2021/07/22 00:53:30;;;;;;;5.13;4.00;;;16.10;99.90;;;;;;5103992;28;20250;-42
2021/07/22 00:56:00;;;;;;;6.50;4.70;;;16.10;99.90;;;;;;5098724;28;20291;-44
2021/07/22 00:58:27;;;;;;;6.73;4.40;;;16.10;99.90;;;;;;5100403;28;20292;-43
2021/07/22 01:00:55;;;;;;;9.67;4.20;;;16.10;99.90;;;;;;5078272;28;20285;-43
2021/07/22 01:03:22;;;;;;;5.90;4.40;;;16.10;99.90;;;;;;5103896;28;20257;-42
2021/07/22 01:05:51;;;;;;;5.40;4.60;;;16.10;99.90;;;;;;5095417;28;20233;-42
2021/07/22 01:08:17;;;;;;;5.23;4.40;;;16.10;99.90;;;;;;5097519;28;20246;-45
2021/07/22 01:10:58;;;;;;;8.27;5.03;;;16.10;99.90;;;;;;5078067;28;20186;-43
2021/07/22 01:13:26;;;;;;;5.47;4.30;;;16.10;99.90;;;;;;5102090;28;20193;-42
2021/07/22 01:15:55;;;;;;;5.63;4.17;;;16.10;99.90;;;;;;5087950;28;20221;-44
2021/07/22 01:18:22;;;;;;;4.40;4.00;;;16.10;99.90;;;;;;5097784;28;20193;-43
2021/07/22 01:20:51;;;;;;;5.97;4.47;;;16.10;99.90;;;;;;5099594;28;20225;-44
2021/07/22 01:23:19;;;;;;;4.77;4.20;;;16.10;99.90;;;;;;5101579;28;20204;-44
2021/07/22 01:26:06;;;;;;;5.10;4.60;;;16.10;99.90;;;;;;5068133;28;20274;-43
2021/07/22 01:28:33;;;;;;;4.67;4.13;;;16.10;99.90;;;;;;5092646;28;20282;-43
2021/07/22 01:31:00;;;;;;;7.90;4.57;;;16.00;99.90;;;;;;5077171;28;20818;-45
2021/07/22 01:33:27;;;;;;;4.27;3.83;;;16.10;99.90;;;;;;5075658;28;20205;-44
2021/07/22 01:35:55;;;;;;;6.57;4.07;;;16.10;99.90;;;;;;5099158;28;20590;-44
2021/07/22 01:38:23;;;;;;;4.70;4.27;;;16.10;99.90;;;;;;5101534;28;20189;-42
2021/07/22 01:40:50;;;;;;;6.80;4.33;;;16.00;99.90;;;;;;5100230;28;20193;-43
2021/07/22 01:43:18;;;;;;;6.67;4.17;;;16.00;99.90;;;;;;5097907;28;20666;-45
2021/07/22 01:45:51;;;;;;;4.80;4.27;;;16.00;99.90;;;;;;5101913;28;20689;-45
2021/07/22 01:48:19;;;;;;;7.17;4.70;;;16.00;99.90;;;;;;5081283;28;20723;-44
2021/07/22 01:50:47;;;;;;;4.67;4.27;;;16.00;99.90;;;;;;5098560;28;20282;-45
2021/07/22 01:53:15;;;;;;;7.50;4.17;;;16.00;99.90;;;;;;5101106;28;20189;-44
2021/07/22 01:55:42;;;;;;;7.37;4.53;;;16.00;99.90;;;;;;5100056;28;20289;-43
2021/07/22 01:58:09;;;;;;;8.83;5.37;;;16.00;99.90;;;;;;5098017;28;20570;-44
2021/07/22 02:00:40;;;;;;;5.20;4.60;;;16.00;99.90;;;;;;5080032;28;20475;-45
2021/07/22 02:03:07;;;;;;;4.37;3.97;;;16.00;99.90;;;;;;5083889;28;20208;-43
2021/07/22 02:05:51;;;;;;;7.20;4.10;;;16.00;99.90;;;;;;5101630;28;20217;-43
2021/07/22 02:08:20;;;;;;;4.97;4.00;;;16.00;99.90;;;;;;5098387;28;20591;-44
2021/07/22 02:10:47;;;;;;;4.10;3.70;;;16.00;99.90;;;;;;5091235;28;20197;-43
2021/07/22 02:13:13;;;;;;;8.20;4.43;;;15.90;99.90;;;;;;5091228;28;20193;-43
2021/07/22 02:15:47;;;;;;;6.07;4.40;;;15.90;99.90;;;;;;5105706;28;20245;-43
2021/07/22 02:18:23;;;;;;;6.33;4.67;;;15.90;99.90;;;;;;5079465;28;20213;-43
2021/07/22 02:20:50;;;;;;;5.17;4.23;;;15.90;99.90;;;;;;5120890;27;20193;-43
2021/07/22 02:23:19;;;;;;;5.83;4.60;;;15.90;99.90;;;;;;5103694;28;20232;-44
2021/07/22 02:26:12;;;;;;;4.40;4.00;;;15.90;99.90;;;;;;5068588;28;20226;-45
2021/07/22 02:28:39;;;;;;;4.80;4.33;;;15.80;99.90;;;;;;5091434;28;20322;-43
2021/07/22 02:31:06;;;;;;;6.10;4.60;;;15.80;99.90;;;;;;5104443;28;20197;-43
2021/07/22 02:33:33;;;;;;;7.87;4.07;;;15.80;99.90;;;;;;5088551;28;20212;-42
2021/07/22 02:36:00;;;;;;;6.90;5.00;;;15.70;99.90;;;;;;5104912;28;20237;-44
2021/07/22 02:38:31;;;;;;;8.40;4.60;;;15.70;99.90;;;;;;5101371;28;20281;-44
2021/07/22 02:41:00;;;;;;;4.57;4.20;;;15.60;99.90;;;;;;5105047;28;20288;-43
2021/07/22 02:43:27;;;;;;;7.50;4.80;;;15.60;99.90;;;;;;5077895;28;20202;-42
2021/07/22 02:45:54;;;;;;;5.80;4.90;;;15.60;99.90;;;;;;5085015;28;20241;-42
2021/07/22 02:48:22;;;;;;;4.93;4.50;;;15.60;99.90;;;;;;5084350;28;20766;-42
2021/07/22 02:50:49;;;;;;;5.33;4.83;;;15.50;99.90;;;;;;5106125;27;20194;-41
2021/07/22 02:53:18;;;;;;;5.27;4.27;;;15.50;99.90;;;;;;5101203;28;20197;-44
2021/07/22 02:56:00;;;;;;;5.37;4.83;;;15.40;99.90;;;;;;5105138;28;20221;-46
2021/07/22 02:58:27;;;;;;;5.87;4.40;;;15.40;99.90;;;;;;5085465;28;20189;-42
2021/07/22 03:00:55;;;;;;;4.50;4.03;;;15.40;99.90;;;;;;5106471;28;20215;-42
2021/07/22 03:03:23;;;;;;;4.83;3.77;;;15.30;99.90;;;;;;5084398;28;20570;-45
2021/07/22 03:05:50;;;;;;;5.53;4.10;;;15.20;99.90;;;;;;5092203;28;20722;-43
2021/07/22 03:08:18;;;;;;;5.27;4.77;;;15.20;99.90;;;;;;5101623;28;20291;-44
2021/07/22 03:10:46;;;;;;;4.83;4.43;;;15.10;99.90;;;;;;5103933;28;20204;-43
2021/07/22 03:13:14;;;;;;;5.53;4.37;;;15.00;99.90;;;;;;5103053;28;20200;-43
2021/07/22 03:15:41;;;;;;;5.27;4.67;;;15.00;99.90;;;;;;5104008;28;20201;-44
2021/07/22 03:18:24;;;;;;;5.60;4.73;;;15.00;99.90;;;;;;5097540;28;20193;-45
2021/07/22 03:20:50;;;;;;;5.83;5.30;;;15.00;99.90;;;;;;5088492;28;20206;-45
2021/07/22 03:23:17;;;;;;;7.53;4.77;;;15.00;99.90;;;;;;5100882;28;20614;-44
2021/07/22 03:25:51;;;;;;;4.97;4.57;;;14.90;99.90;;;;;;5084215;28;20214;-43
2021/07/22 03:28:24;;;;;;;5.60;5.10;;;14.80;99.90;;;;;;5095599;28;20194;-45
2021/07/22 03:31:08;;;;;;;5.30;4.63;;;14.80;99.90;;;;;;5082385;28;20213;-43
2021/07/22 03:33:44;;;;;;;5.40;4.90;;;14.80;99.90;;;;;;5100497;28;20246;-43
2021/07/22 03:36:23;;;;;;;6.50;4.60;;;14.80;99.90;;;;;;5084365;28;20252;-44
2021/07/22 03:39:06;;;;;;;5.67;5.17;;;14.80;99.90;;;;;;5115658;27;20639;-44
2021/07/22 03:41:35;;;;;;;7.27;5.07;;;14.80;99.90;;;;;;5082191;28;20197;-44
2021/07/22 03:44:23;;;;;;;5.30;4.80;;;14.80;99.90;;;;;;5090842;28;20311;-42
2021/07/22 03:46:50;;;;;;;7.90;5.33;;;14.90;99.90;;;;;;5100588;28;20225;-44
2021/07/22 03:49:17;;;;;;;6.50;5.57;;;14.90;99.90;;;;;;5084855;28;20206;-44
2021/07/22 03:51:44;;;;;;;5.43;4.97;;;14.90;99.90;;;;;;5088625;28;20244;-42
2021/07/22 03:54:13;;;;;;;6.60;5.00;;;15.00;99.90;;;;;;5101671;28;20634;-43
2021/07/22 03:56:41;;;;;;;6.33;5.27;;;15.00;99.90;;;;;;5082259;28;20186;-42
2021/07/22 03:59:19;;;;;;;8.67;4.90;;;15.00;99.90;;;;;;5092845;28;20725;-45
2021/07/22 04:01:47;;;;;;;6.10;5.07;;;15.00;99.90;;;;;;5102414;28;20212;-43
2021/07/22 04:04:21;;;;;;;5.17;4.50;;;15.00;99.90;;;;;;5101531;28;20251;-44
2021/07/22 04:06:52;;;;;;;6.83;4.70;;;15.00;99.90;;;;;;5103242;28;20258;-44
2021/07/22 04:09:40;;;;;;;6.37;4.73;;;15.00;99.90;;;;;;5084458;28;20217;-42
2021/07/22 04:12:27;;;;;;;6.00;5.07;;;15.10;99.90;;;;;;5068416;28;20194;-44
2021/07/22 04:15:08;;;;;;;5.90;5.40;;;15.10;99.90;;;;;;5104372;28;20623;-42
2021/07/22 04:17:46;;;;;;;6.87;5.37;;;15.20;99.90;;;;;;5094420;28;20211;-42
2021/07/22 04:20:24;;;;;;;6.97;5.30;;;15.20;99.90;;;;;;5099749;28;20193;-42
2021/07/22 04:23:04;;;;;;;7.13;5.37;;;15.30;99.90;;;;;;5088810;28;20308;-44
2021/07/22 04:25:42;;;;;;;6.13;5.63;;;15.20;99.90;;;;;;5097394;28;20313;-43
2021/07/22 04:28:19;;;;;;;6.53;5.53;;;15.20;99.90;;;;;;5113214;27;20249;-44
2021/07/22 04:30:47;;;;;;;6.63;5.33;;;15.30;99.90;;;;;;5101964;28;20682;-43
2021/07/22 04:33:25;;;;;;;8.23;5.03;;;15.30;99.90;;;;;;5100473;28;20200;-43
2021/07/22 04:35:58;;;;;;;6.53;5.40;;;15.30;99.90;;;;;;5097246;27;20235;-42
2021/07/22 04:38:41;;;;;;;6.47;5.30;;;15.30;99.90;;;;;;5086416;28;20355;-42
2021/07/22 04:41:22;;;;;;;6.97;5.17;;;15.30;99.90;;;;;;5097479;28;20203;-45
2021/07/22 04:44:05;;;;;;;5.83;5.33;;;15.30;99.90;;;;;;5094630;28;20607;-45
2021/07/22 04:46:50;;;;;;;5.80;5.30;;;15.40;99.90;;;;;;5100296;28;20200;-42
2021/07/22 04:49:41;;;;;;;5.67;5.17;;;15.40;99.90;;;;;;5089849;28;20213;-44
2021/07/22 04:52:35;;;;;;;8.47;4.60;;;15.50;99.90;;;;;;5098943;28;20921;-43
2021/07/22 04:55:10;;;;;;;6.90;5.57;;;15.50;99.90;;;;;;5078531;28;20224;-44
2021/07/22 04:57:38;;;;;;;6.70;4.83;;;15.60;99.90;;;;;;5100476;28;20185;-43
2021/07/22 05:00:08;;;;;;;6.53;5.17;;;15.60;99.90;;;;;;5101572;28;20276;-44
2021/07/22 05:02:44;;;;;;;5.83;5.27;;;15.60;99.90;;;;;;5102694;28;20189;-45
2021/07/22 05:05:13;;;;;;;9.17;5.53;;;15.60;99.90;;;;;;5097060;28;20693;-44
2021/07/22 05:07:58;;;;;;;5.13;4.63;;;15.70;99.90;;;;;;5102443;28;20281;-44
2021/07/22 05:10:43;;;;;;;6.67;5.60;;;15.70;99.90;;;;;;5073463;28;20366;-43
2021/07/22 05:13:24;;;;;;;6.10;4.83;;;15.70;99.90;;;;;;5091310;28;20969;-49
2021/07/22 05:16:05;;;;;;;6.73;5.67;;;15.70;99.90;;;;;;5102587;28;20312;-44
2021/07/22 05:18:52;;;;;;;6.60;5.27;;;15.80;99.90;;;;;;5084232;28;20434;-45
2021/07/22 05:21:43;;;;;;;6.60;4.63;;;15.80;99.90;;;;;;5099642;28;20208;-43
2021/07/22 05:24:33;;;;;;;6.00;5.07;;;15.80;99.90;;;;;;5096217;28;20233;-43
2021/07/22 05:27:19;;;;;;;6.40;5.03;;;15.80;99.90;;;;;;5084213;28;20297;-43
2021/07/22 05:29:58;;;;;;;7.60;5.40;;;15.90;99.90;;;;;;5094694;28;20263;-44
2021/07/22 05:32:32;;;;;;;8.53;4.67;;;15.90;99.90;;;;;;5103622;28;20225;-43
2021/07/22 05:35:17;;;;;;;4.67;4.27;;;16.00;99.90;;;;;;5083846;28;20301;-45
2021/07/22 05:37:53;;;;;;;6.17;5.03;;;15.90;99.90;;;;;;5080364;28;20282;-43
2021/07/22 05:40:19;;;;;;;5.33;4.07;;;16.00;99.90;;;;;;5085679;28;20196;-43
2021/07/22 05:42:48;;;;;;;6.83;4.50;;;16.00;99.90;;;;;;5066648;28;20369;-43
2021/07/22 05:45:15;;;;;;;4.63;4.33;;;16.00;99.90;;;;;;5093789;28;20284;-43
2021/07/22 05:47:42;;;;;;;5.60;4.50;;;16.00;99.90;;;;;;5086388;28;20201;-43
2021/07/22 05:50:09;;;;;;;7.17;4.43;;;16.00;99.90;;;;;;5103974;28;20704;-43
2021/07/22 05:52:36;;;;;;;5.27;3.87;;;16.10;99.90;;;;;;5098381;28;20272;-43
2021/07/22 05:55:04;;;;;;;6.40;4.33;;;16.10;99.90;;;;;;5098823;28;20788;-43
2021/07/22 05:57:32;;;;;;;4.90;4.40;;;16.10;99.90;;;;;;5088235;28;20198;-47
2021/07/22 05:59:59;;;;;;;5.27;4.17;;;16.20;99.90;;;;;;5101231;28;20194;-43
2021/07/22 06:02:25;;;;;;;6.13;4.50;;;16.10;99.90;;;;;;5099151;28;20194;-49
2021/07/22 06:04:52;;;;;;;5.57;4.10;;;16.20;99.90;;;;;;5103624;28;20223;-45
2021/07/22 06:07:18;;;;;;;5.07;4.23;;;16.10;99.90;;;;;;5103717;28;20199;-44
2021/07/22 06:09:45;;;;;;;4.13;3.57;;;16.20;99.90;;;;;;5097973;28;20220;-43
2021/07/22 06:12:13;;;;;;;5.47;3.87;;;16.20;99.90;;;;;;5095867;28;20197;-44
2021/07/22 06:14:40;;;;;;;4.67;4.13;;;16.20;99.90;;;;;;5089126;28;20221;-44
2021/07/22 06:17:06;;;;;;;5.43;3.77;;;16.20;99.90;;;;;;5102722;28;20200;-46
2021/07/22 06:19:33;;;;;;;5.67;4.40;;;16.20;99.90;;;;;;5097154;28;20189;-43
2021/07/22 06:21:59;;;;;;;5.10;4.00;;;16.20;99.90;;;;;;5103185;28;20202;-45
2021/07/22 06:24:26;;;;;;;6.20;3.97;;;16.30;99.90;;;;;;5096614;28;20330;-45
2021/07/22 06:26:53;;;;;;;4.33;4.00;;;16.20;99.90;;;;;;5105248;28;20201;-42
2021/07/22 06:29:21;;;;;;;4.37;3.97;;;16.30;99.90;;;;;;5088286;28;20206;-44
2021/07/22 06:31:47;;;;;;;6.13;4.20;;;16.30;99.90;;;;;;5099447;28;20198;-42
2021/07/22 06:34:14;;;;;;;6.77;3.83;;;16.30;99.90;;;;;;5097409;28;20225;-47
2021/07/22 06:36:41;;;;;;;6.33;4.17;;;16.30;99.90;;;;;;5097905;28;20182;-42
2021/07/22 06:39:07;;;;;;;5.53;4.30;;;16.30;99.90;;;;;;5103014;28;20198;-43
2021/07/22 06:41:34;;;;;;;3.83;3.33;;;16.30;99.90;;;;;;5091966;28;20222;-43
2021/07/22 06:44:00;;;;;;;4.60;4.20;;;16.30;99.90;;;;;;5100833;28;20204;-47
2021/07/22 06:46:28;;;;;;;6.27;3.93;;;16.30;99.90;;;;;;5085876;28;20201;-43
2021/07/22 06:48:57;;;;;;;3.70;3.40;;;16.30;99.90;;;;;;5095995;28;20576;-42
2021/07/22 06:51:24;;;;;;;4.53;3.80;;;16.40;99.90;;;;;;5100403;28;20217;-44
2021/07/22 06:53:54;;;;;;;3.87;3.50;;;16.50;99.90;;;;;;5104988;28;20202;-44
2021/07/22 06:56:21;;;;;;;5.17;3.67;;;16.50;99.90;;;;;;5095587;28;20194;-43
2021/07/22 06:58:48;;;;;;;6.03;3.37;;;16.60;99.90;;;;;;5101584;28;20200;-44
2021/07/22 07:01:14;;;;;;;4.00;3.70;;;16.60;99.90;;;;;;5086355;28;20190;-42
2021/07/22 07:03:42;;;;;;;5.67;3.73;;;16.60;99.90;;;;;;5098102;28;20201;-44
2021/07/22 07:06:09;;;;;;;4.73;3.27;;;16.70;99.90;;;;;;5094611;28;20224;-47
2021/07/22 07:08:35;;;;;;;3.63;3.33;;;16.70;99.90;;;;;;5100277;28;20208;-42
2021/07/22 07:11:02;;;;;;;3.87;3.47;;;16.70;99.90;;;;;;5098963;28;20720;-44
2021/07/22 07:13:29;;;;;;;3.90;3.40;;;16.80;99.90;;;;;;5097856;28;20228;-42
2021/07/22 07:15:55;;;;;;;5.10;3.50;;;16.90;99.90;;;;;;5088587;27;20303;-42
2021/07/22 07:18:22;;;;;;;4.87;3.53;;;16.90;99.90;;;;;;5102823;28;20212;-43
2021/07/22 07:20:50;;;;;;;3.83;3.47;;;17.00;99.90;;;;;;5091416;28;20247;-47
2021/07/22 07:23:16;;;;;;;3.77;3.43;;;17.00;99.90;;;;;;5103518;28;20192;-44
2021/07/22 07:25:43;;;;;;;4.47;3.40;;;17.00;99.90;;;;;;5103177;28;20220;-45
2021/07/22 07:28:09;;;;;;;3.60;3.30;;;17.10;99.90;;;;;;5090410;28;20197;-42
2021/07/22 07:30:36;;;;;;;4.83;3.77;;;17.20;99.90;;;;;;5099933;28;20213;-44
2021/07/22 07:33:04;;;;;;;5.67;3.27;;;17.20;99.90;;;;;;5092573;28;20918;-44
2021/07/22 07:35:31;;;;;;;3.97;3.40;;;17.30;99.90;;;;;;5093800;28;20222;-44
2021/07/22 07:37:59;;;;;;;4.43;3.10;;;17.20;99.90;;;;;;5082642;28;20204;-46
2021/07/22 07:40:26;;;;;;;5.07;3.27;;;17.30;99.90;;;;;;5091363;28;20190;-42
2021/07/22 07:42:53;;;;;;;7.53;3.90;;;17.40;99.90;;;;;;5082673;28;20198;-44
2021/07/22 07:45:19;;;;;;;5.27;3.90;;;17.40;99.90;;;;;;5087665;28;20300;-43
2021/07/22 07:47:46;;;;;;;4.80;3.40;;;17.40;99.90;;;;;;5088373;28;20216;-45
2021/07/22 07:50:13;;;;;;;5.13;3.13;;;17.50;99.90;;;;;;5095555;28;20220;-47
2021/07/22 07:52:40;;;;;;;5.80;3.60;;;17.60;99.90;;;;;;5097602;28;20563;-44
2021/07/22 07:55:09;;;;;;;4.20;3.37;;;17.60;99.90;;;;;;5098821;28;20242;-42
2021/07/22 07:57:35;;;;;;;3.13;2.93;;;17.70;99.90;;;;;;5085769;28;20190;-46
2021/07/22 08:00:03;;;;;;;3.33;3.03;;;17.70;99.90;;;;;;5088477;28;20201;-44
2021/07/22 08:02:39;;;;;;;3.60;3.40;;;17.80;99.90;;;;;;5097740;28;20281;-48
2021/07/22 08:05:06;;;;;;;3.87;3.47;;;17.80;99.90;;;;;;5094255;28;20220;-42
2021/07/22 08:07:34;;;;;;;6.27;3.37;;;17.90;99.90;;;;;;5097582;28;20217;-42
2021/07/22 08:10:00;;;;;;;6.07;3.70;;;17.90;99.90;;;;;;5097172;28;20213;-44
2021/07/22 08:12:28;;;;;;;4.20;3.37;;;17.90;99.90;;;;;;5088541;28;20185;-43
2021/07/22 08:14:56;;;;;;;5.27;3.60;;;17.80;99.90;;;;;;5089040;28;20198;-42
2021/07/22 08:17:25;;;;;;;5.00;3.60;;;17.80;99.90;;;;;;5099837;28;20206;-43
2021/07/22 08:19:57;;;;;;;6.13;3.73;;;17.80;99.90;;;;;;5087476;28;20228;-44
2021/07/22 08:22:25;;;;;;;3.80;3.43;;;17.80;99.90;;;;;;5088698;28;20690;-43
2021/07/22 08:24:52;;;;;;;3.93;3.63;;;17.80;99.90;;;;;;5083585;28;20298;-47
2021/07/22 08:27:25;;;;;;;3.67;3.37;;;17.80;99.90;;;;;;5102896;28;20193;-43
2021/07/22 08:29:53;;;;;;;3.33;3.07;;;18.00;99.90;;;;;;5081943;28;20280;-46
2021/07/22 08:32:20;;;;;;;6.53;3.70;;;17.90;99.90;;;;;;5102365;28;20265;-44
2021/07/22 08:34:47;;;;;;;5.10;3.37;;;18.00;99.90;;;;;;5088072;28;20840;-44
2021/07/22 08:37:14;;;;;;;3.70;3.40;;;18.00;99.90;;;;;;5091326;28;20205;-49
2021/07/22 08:39:42;;;;;;;5.10;3.40;;;18.10;99.90;;;;;;5097139;28;20209;-43
2021/07/22 08:42:10;;;;;;;6.40;3.87;;;18.10;99.90;;;;;;5096880;28;20686;-44
2021/07/22 08:44:38;;;;;;;3.60;3.30;;;18.10;99.90;;;;;;5100483;28;20216;-43
2021/07/22 08:47:08;;;;;;;4.17;3.77;;;18.10;99.90;;;;;;5092268;28;20190;-44
2021/07/22 08:49:35;;;;;;;4.53;3.20;;;18.10;99.90;;;;;;5083556;28;20201;-46
2021/07/22 08:52:06;;;;;;;3.73;3.23;;;18.10;99.90;;;;;;5094679;28;20224;-43
2021/07/22 08:54:32;;;;;;;3.87;3.57;;;18.20;99.90;;;;;;5095957;28;20217;-46
2021/07/22 08:57:00;;;;;;;3.70;2.97;;;18.10;99.90;;;;;;5098426;28;20202;-42
2021/07/22 08:59:29;;;;;;;4.13;3.23;;;18.20;99.90;;;;;;5098819;28;20193;-45
2021/07/22 09:01:57;;;;;;;4.57;3.73;;;18.20;99.90;;;;;;5099810;28;20212;-42
2021/07/22 09:04:25;;;;;;;4.13;3.20;;;18.30;99.90;;;;;;5079266;28;20209;-42
2021/07/22 09:06:51;;;;;;;4.40;3.23;;;18.40;99.90;;;;;;5102150;28;20212;-44
2021/07/22 09:09:18;;;;;;;3.00;2.73;;;18.50;99.90;;;;;;5090513;28;20201;-42
2021/07/22 09:11:56;;;;;;;2.97;2.77;;;18.60;99.90;;;;;;5098400;28;20218;-41
2021/07/22 09:14:22;;;;;;;3.97;2.63;;;18.60;99.90;;;;;;5094561;28;20311;-44
2021/07/22 09:16:49;;;;;;;3.63;3.33;;;18.70;99.90;;;;;;5103010;28;20201;-42
2021/07/22 09:22:11;;;;;;;3.83;3.40;;;18.80;99.90;;;;;;5078578;28;20559;-42
2021/07/22 09:24:48;;;;;;;3.17;2.97;;;18.90;99.90;;;;;;5071051;28;20315;-42
2021/07/22 09:27:41;;;;;;;3.77;3.27;;;19.10;99.90;;;;;;5057245;28;20533;-41
2021/07/22 09:30:11;;;;;;;3.93;3.03;;;19.00;99.90;;;;;;5051248;28;20198;-44
2021/07/22 09:32:39;;;;;;;3.33;3.03;;;19.00;99.90;;;;;;5057637;28;20276;-41
2021/07/22 09:35:11;;;;;;;4.73;2.97;;;19.10;99.90;;;;;;5044000;28;20226;-42
2021/07/22 09:37:41;;;;;;;4.27;3.87;;;19.10;99.90;;;;;;5056931;28;20395;-42
2021/07/22 09:40:09;;;;;;;3.93;3.30;;;19.00;99.90;;;;;;5067336;28;20206;-42
2021/07/22 09:42:55;;;;;;;4.70;3.47;;;18.90;99.90;;;;;;5044863;28;20646;-41
2021/07/22 09:45:24;;;;;;;3.80;3.50;;;18.90;99.90;;;;;;5056238;28;20281;-43
2021/07/22 09:47:51;;;;;;;3.83;3.53;;;19.00;99.90;;;;;;5059629;28;20195;-41
2021/07/22 09:50:20;;;;;;;3.87;3.20;;;19.10;99.90;;;;;;5053864;28;20443;-43
2021/07/22 09:52:49;;;;;;;5.33;3.90;;;19.00;99.90;;;;;;5058830;28;20203;-46
2021/07/22 09:55:27;;;;;;;5.70;3.30;;;19.00;99.90;;;;;;5052478;28;21002;-46
2021/07/22 09:57:55;;;;;;;5.33;3.43;;;19.00;99.90;;;;;;5052092;28;20196;-44
2021/07/22 10:00:23;;;;;;;6.40;3.53;;;18.90;99.90;;;;;;5054092;28;20222;-43
2021/07/22 10:02:51;;;;;;;6.43;3.17;;;18.90;99.90;;;;;;5058829;28;20563;-42
2021/07/22 10:05:22;;;;;;;5.53;3.43;;;18.90;99.90;;;;;;5061182;28;20287;-46
2021/07/22 10:07:52;;;;;;;3.40;3.10;;;19.10;99.90;;;;;;5043068;28;21416;-42
2021/07/22 10:10:20;;;;;;;3.20;3.00;;;19.10;99.90;;;;;;5055413;28;20193;-42
2021/07/22 10:12:53;;;;;;;3.77;3.10;;;19.20;99.90;;;;;;5059664;28;20274;-42
2021/07/22 10:15:20;;;;;;;4.17;2.87;;;19.10;99.90;;;;;;5054754;28;20214;-42
2021/07/22 10:17:48;;;;;;;4.37;3.27;;;19.00;99.90;;;;;;5056902;28;20284;-42
2021/07/22 10:20:16;;;;;;;3.57;2.67;;;18.90;99.90;;;;;;5050579;28;20224;-42
2021/07/22 10:22:44;;;;;;;3.53;2.57;;;18.90;99.90;;;;;;5044644;28;20198;-42
2021/07/22 10:25:15;;;;;;;4.93;2.87;;;18.90;99.90;;;;;;5051982;28;20555;-43
2021/07/22 10:27:45;;;;;;;4.77;3.37;;;19.10;99.90;;;;;;5059257;28;20194;-43
2021/07/22 10:30:13;;;;;;;3.07;2.60;;;19.10;99.90;;;;;;5050584;28;20203;-41
2021/07/22 10:32:44;;;;;;;3.33;3.03;;;19.10;99.90;;;;;;5039527;28;20204;-41
2021/07/22 10:35:11;;;;;;;3.63;2.67;;;19.00;99.90;;;;;;5029538;28;20223;-41
2021/07/22 10:37:38;;;;;;;3.07;2.80;;;18.90;99.90;;;;;;5043432;28;20579;-43
2021/07/22 10:40:09;;;;;;;5.63;3.17;;;19.00;99.90;;;;;;5041046;28;20210;-42
2021/07/22 10:42:41;;;;;;;3.40;2.70;;;19.10;99.90;;;;;;5062214;28;20213;-43
2021/07/22 10:45:32;;;;;;;3.70;3.40;;;19.40;99.90;;;;;;5050937;28;20230;-42
2021/07/22 10:48:07;;;;;;;3.17;2.87;;;19.70;99.90;;;;;;5031854;28;20222;-41
2021/07/22 10:51:02;;;;;;;3.70;3.40;;;19.70;99.90;;;;;;5039328;28;20218;-50
2021/07/22 10:53:47;;;;;;;3.40;3.13;;;19.50;99.90;;;;;;5023357;28;20365;-44
2021/07/22 10:56:15;;;;;;;3.00;2.80;;;19.30;99.90;;;;;;5035870;28;20238;-46
2021/07/22 10:58:51;;;;;;;5.50;3.37;;;19.40;99.90;;;;;;5038106;28;20195;-43
2021/07/22 11:01:52;;;;;;;3.30;2.93;;;19.60;99.90;;;;;;5032356;28;20211;-48
2021/07/22 11:04:46;;;;;;;4.27;3.40;;;19.70;99.90;;;;;;5031036;28;20231;-44
2021/07/22 11:07:23;;;;;;;5.83;3.07;;;19.60;99.90;;;;;;5040743;28;20292;-45
2021/07/22 11:09:53;;;;;;;2.77;2.60;;;19.60;99.90;;;;;;5028932;28;20210;-43
2021/07/22 11:12:44;;;;;;;5.10;2.60;;;19.50;99.90;;;;;;5037159;28;20634;-47
2021/07/22 11:15:15;;;;;;;3.73;2.70;;;19.60;99.90;;;;;;5032263;28;20751;-45
2021/07/22 11:17:44;;;;;;;3.30;2.73;;;19.60;99.90;;;;;;5037672;28;20206;-44
2021/07/22 11:20:45;;;;;;;2.63;2.43;;;19.80;99.90;;;;;;5044799;28;20219;-45
2021/07/22 11:23:16;;;;;;;3.20;2.50;;;20.00;99.90;;;;;;5040825;28;20695;-43
2021/07/22 11:25:48;;;;;;;4.03;2.67;;;20.00;99.50;;;;;;5026283;28;20219;-46
2021/07/22 11:28:16;;;;;;;3.60;2.73;;;20.00;99.90;;;;;;5029728;28;20204;-43
2021/07/22 11:31:03;;;;;;;4.13;2.63;;;20.10;99.90;;;;;;5040347;28;20696;-49
2021/07/22 11:33:31;;;;;;;4.60;2.30;;;20.10;99.90;;;;;;5036586;28;20199;-45
2021/07/22 11:36:00;;;;;;;2.83;2.43;;;20.10;99.90;;;;;;5041295;28;20285;-52
2021/07/22 11:38:27;;;;;;;3.17;2.30;;;20.10;99.40;;;;;;5033933;28;20203;-47
2021/07/22 11:40:54;;;;;;;2.83;2.30;;;19.90;99.90;;;;;;5020757;28;20211;-47
2021/07/22 11:43:35;;;;;;;2.77;2.07;;;19.90;99.90;;;;;;5036628;28;20195;-43
2021/07/22 11:46:03;;;;;;;2.47;1.93;;;20.00;99.90;;;;;;5031850;28;20199;-44
2021/07/22 11:48:30;;;;;;;3.77;2.50;;;20.20;99.90;;;;;;5040911;28;20208;-43
2021/07/22 11:51:01;;;;;;;3.20;2.27;;;20.20;99.90;;;;;;5036684;28;20195;-48
2021/07/22 11:53:28;;;;;;;3.07;1.67;;;20.30;99.40;;;;;;5043980;28;20278;-43
2021/07/22 11:55:56;;;;;;;3.33;1.70;;;20.50;98.80;;;;;;5024594;28;20238;-45
2021/07/22 11:58:23;;;;;;;3.67;1.70;;;20.50;99.00;;;;;;5042347;28;20600;-42
2021/07/22 12:00:49;;;;;;;1.87;1.77;;;20.40;98.30;;;;;;5038309;28;20699;-46
2021/07/22 12:03:23;;;;;;;1.50;1.40;;;20.50;98.20;;;;;;5036603;28;20219;-43
2021/07/22 12:05:50;;;;;;;3.27;1.80;;;20.70;97.60;;;;;;5038424;28;20298;-46
2021/07/22 12:08:18;;;;;;;3.43;1.80;;;20.90;97.10;;;;;;5039614;28;20196;-43
2021/07/22 12:10:46;;;;;;;2.13;1.93;;;21.10;97.60;;;;;;5023345;28;20216;-49
2021/07/22 12:13:13;;;;;;;2.43;1.47;;;20.90;96.90;;;;;;5036772;28;20294;-43
2021/07/22 12:15:41;;;;;;;3.33;1.60;;;20.60;97.00;;;;;;5038498;28;20308;-44
2021/07/22 12:18:08;;;;;;;4.23;1.30;;;20.50;97.30;;;;;;5039638;28;20199;-45
2021/07/22 12:20:37;;;;;;;3.33;1.30;;;20.70;97.30;;;;;;5026858;28;20211;-46
2021/07/22 12:23:28;;;;;;;2.00;1.27;;;20.60;96.90;;;;;;5044216;28;20203;-47
2021/07/22 12:25:56;;;;;;;2.53;1.77;;;20.50;96.30;;;;;;5028392;28;20227;-43
2021/07/22 12:28:23;;;;;;;5.30;1.50;;;20.30;97.50;;;;;;5034269;28;20287;-46
2021/07/22 12:30:49;;;;;;;2.93;1.60;;;20.40;98.10;;;;;;5036832;28;20207;-47
2021/07/22 12:33:23;;;;;;;2.27;1.47;;;20.70;97.70;;;;;;5044138;28;20562;-45
2021/07/22 12:35:51;;;;;;;6.50;1.60;;;20.80;97.20;;;;;;5031828;28;20308;-45
2021/07/22 12:38:29;;;;;;;4.07;1.80;;;20.90;97.50;;;;;;5043100;28;20205;-49
2021/07/22 12:41:07;;;;;;;4.37;1.70;;;20.90;96.70;;;;;;5024756;28;20214;-45
2021/07/22 12:43:49;;;;;;;2.10;1.53;;;20.80;96.90;;;;;;5032809;28;20207;-49
2021/07/22 12:46:17;;;;;;;3.43;1.50;;;20.80;95.80;;;;;;5035118;28;20238;-43
2021/07/22 12:48:44;;;;;;;2.63;1.67;;;20.90;96.50;;;;;;5039417;28;20760;-44
2021/07/22 12:51:14;;;;;;;1.73;1.20;;;21.00;96.00;;;;;;5039769;28;20202;-45
2021/07/22 12:53:41;;;;;;;1.43;1.33;;;21.30;95.70;;;;;;5034982;28;20191;-45
2021/07/22 12:56:08;;;;;;;2.07;1.30;;;21.40;95.30;;;;;;5039274;28;20290;-44
2021/07/22 12:58:41;;;;;;;6.77;1.90;;;21.40;95.50;;;;;;5015735;28;20218;-45
2021/07/22 13:01:11;;;;;;;1.73;1.40;;;21.70;94.90;;;;;;5028370;28;20195;-45
2021/07/22 13:03:39;;;;;;;2.03;1.70;;;21.90;94.80;;;;;;5039413;28;20278;-46
2021/07/22 13:06:05;;;;;;;2.00;1.47;;;22.10;93.80;;;;;;5035171;28;20928;-44
2021/07/22 13:08:34;;;;;;;1.40;1.30;;;21.80;94.30;;;;;;5039708;28;20215;-45